Time;durP1;ratioP1;P1;durP2;ratioP2;P2;SDS_P1;SDS_P2;PMS_P1;PMS_P2;Temp;Humidity;BMP_temperature;BMP_pressure;BME280_temperature;BME280_humidity;BME280_pressure;Samples;Min_cycle;Max_cycle;Signal;HPM_P1;HPM_P2
2022/06/02 00:01:55;;;;;;;0.40;0.40;;;9.30;99.90;;;;;;5096568;28;20098;-72
2022/06/02 00:04:41;;;;;;;0.40;0.40;;;9.30;99.90;;;;;;5096911;28;20127;-74
2022/06/02 00:07:17;;;;;;;0.43;0.43;;;9.20;99.90;;;;;;5096758;28;20062;-71
2022/06/02 00:09:58;;;;;;;1.10;1.05;;;9.40;99.90;;;;;;5096546;28;20040;-73
2022/06/02 00:12:28;;;;;;;0.50;0.50;;;9.20;99.90;;;;;;5096712;28;20052;-71
2022/06/02 00:15:03;;;;;;;0.40;0.40;;;9.10;99.90;;;;;;5096142;28;20048;-74
2022/06/02 00:17:41;;;;;;;0.40;0.40;;;9.10;99.90;;;;;;5095800;28;20565;-72
2022/06/02 00:20:24;;;;;;;0.50;0.50;;;9.00;99.90;;;;;;5095265;28;20048;-72
2022/06/02 00:23:33;;;;;;;0.50;0.50;;;9.00;99.90;;;;;;5096039;28;20040;-70
2022/06/02 00:26:30;;;;;;;0.40;0.40;;;9.00;99.90;;;;;;5096357;28;20094;-73
2022/06/02 00:29:30;;;;;;;0.40;0.40;;;9.00;99.90;;;;;;5095861;28;20569;-72
2022/06/02 00:31:56;;;;;;;0.50;0.50;;;8.90;99.90;;;;;;5088021;28;20063;-70
2022/06/02 00:34:43;;;;;;;0.40;0.40;;;8.90;99.90;;;;;;5095789;28;20048;-70
2022/06/02 00:37:30;;;;;;;0.40;0.40;;;8.90;99.90;;;;;;5095842;28;20090;-70
2022/06/02 00:39:57;;;;;;;0.40;0.40;;;8.90;99.90;;;;;;5095971;28;20051;-73
2022/06/02 00:42:26;;;;;;;0.40;0.40;;;8.90;99.90;;;;;;5095662;28;20341;-71
2022/06/02 00:44:59;;;;;;;0.40;0.40;;;8.80;99.90;;;;;;5095590;28;20106;-75
2022/06/02 00:47:51;;;;;;;0.40;0.40;;;8.80;99.90;;;;;;5095908;28;20051;-70
2022/06/02 00:50:25;;;;;;;0.50;0.50;;;8.80;99.90;;;;;;5095468;28;20134;-70
2022/06/02 00:53:22;;;;;;;0.50;0.50;;;9.10;99.90;;;;;;5095660;28;20040;-74
2022/06/02 00:59:06;;;;;;;0.50;0.50;;;8.70;99.90;;;;;;5095384;28;20437;-73
2022/06/02 01:01:35;;;;;;;0.40;0.40;;;8.70;99.90;;;;;;5095781;28;20052;-75
2022/06/02 01:04:08;;;;;;;0.47;0.47;;;8.60;99.90;;;;;;5095402;28;20102;-71
2022/06/02 01:07:01;;;;;;;0.75;0.65;;;8.60;99.90;;;;;;5095287;28;20051;-71
2022/06/02 01:10:12;;;;;;;0.50;0.50;;;8.60;99.90;;;;;;5095207;28;20052;-71
2022/06/02 01:12:58;;;;;;;0.50;0.50;;;8.50;99.90;;;;;;5081429;28;20360;-74
2022/06/02 01:15:44;;;;;;;0.40;0.40;;;8.50;99.90;;;;;;5095062;28;20074;-73
2022/06/02 01:18:29;;;;;;;0.50;0.50;;;8.40;99.90;;;;;;5094968;28;20044;-71
2022/06/02 01:21:28;;;;;;;0.90;0.90;;;8.40;99.90;;;;;;5095007;28;20048;-73
2022/06/02 01:24:10;;;;;;;0.40;0.40;;;8.40;99.90;;;;;;5095347;28;20051;-70
2022/06/02 01:26:50;;;;;;;0.40;0.40;;;8.30;99.90;;;;;;5094707;28;20051;-72
2022/06/02 01:29:39;;;;;;;0.43;0.43;;;8.30;99.90;;;;;;5094839;28;20040;-74
2022/06/02 01:32:09;;;;;;;0.43;0.43;;;8.20;99.90;;;;;;5094502;28;20044;-71
2022/06/02 01:34:59;;;;;;;0.40;0.40;;;8.20;99.90;;;;;;5095111;28;20074;-71
2022/06/02 01:37:59;;;;;;;0.63;0.63;;;8.10;99.90;;;;;;5094819;28;20093;-73
2022/06/02 01:40:44;;;;;;;0.50;0.50;;;8.10;99.90;;;;;;5093725;28;20468;-72
2022/06/02 01:43:27;;;;;;;0.50;0.50;;;8.10;99.90;;;;;;5094926;28;20040;-72
2022/06/02 01:46:20;;;;;;;0.50;0.50;;;8.10;99.90;;;;;;5093615;28;20504;-73
2022/06/02 01:48:53;;;;;;;0.57;0.57;;;8.10;99.90;;;;;;5094963;28;20059;-71
2022/06/02 01:51:40;;;;;;;0.40;0.40;;;8.00;99.90;;;;;;5094239;28;20040;-72
2022/06/02 01:54:22;;;;;;;0.50;0.50;;;8.00;99.90;;;;;;5094343;28;20050;-73
2022/06/02 01:56:52;;;;;;;0.50;0.50;;;7.90;99.90;;;;;;5094260;28;20127;-73
2022/06/02 01:59:52;;;;;;;0.60;0.60;;;7.90;99.90;;;;;;5093551;28;20089;-70
2022/06/02 02:02:30;;;;;;;0.50;0.50;;;7.90;99.90;;;;;;5094537;28;20040;-75
2022/06/02 02:05:03;;;;;;;0.50;0.50;;;7.90;99.90;;;;;;5094210;28;20135;-75
2022/06/02 02:07:39;;;;;;;0.50;0.50;;;7.90;99.90;;;;;;5094085;28;20048;-71
2022/06/02 02:10:34;;;;;;;0.50;0.50;;;7.90;99.90;;;;;;5094478;28;20051;-76
2022/06/02 02:13:18;;;;;;;0.68;0.68;;;7.90;99.90;;;;;;5094368;28;20118;-75
2022/06/02 02:15:55;;;;;;;0.50;0.50;;;8.40;99.90;;;;;;5093687;28;20480;-68
2022/06/02 02:18:47;;;;;;;0.50;0.50;;;7.90;99.90;;;;;;5094049;28;20131;-73
2022/06/02 02:21:21;;;;;;;0.50;0.50;;;7.90;99.90;;;;;;5094217;28;20048;-73
2022/06/02 02:24:07;;;;;;;0.40;0.40;;;7.90;99.90;;;;;;5093889;28;20055;-72
2022/06/02 02:26:43;;;;;;;0.40;0.40;;;7.80;99.90;;;;;;5094126;28;20450;-71
2022/06/02 02:29:47;;;;;;;1.05;1.02;;;7.80;99.90;;;;;;5093883;28;20097;-75
2022/06/02 02:32:59;;;;;;;0.50;0.50;;;7.80;99.90;;;;;;5031218;28;20520;-70
2022/06/02 02:35:49;;;;;;;0.50;0.50;;;7.80;99.90;;;;;;5031592;28;20052;-71
2022/06/02 02:38:24;;;;;;;0.50;0.50;;;7.70;99.90;;;;;;5090327;28;20084;-71
2022/06/02 02:40:58;;;;;;;0.45;0.45;;;7.70;99.90;;;;;;5093735;28;20505;-72
2022/06/02 02:43:42;;;;;;;0.50;0.50;;;7.70;99.90;;;;;;5094092;28;20036;-73
2022/06/02 02:46:14;;;;;;;0.50;0.50;;;7.60;99.90;;;;;;5097893;28;20048;-73
2022/06/02 02:49:00;;;;;;;0.50;0.50;;;7.70;99.90;;;;;;5097809;28;20044;-72
2022/06/02 02:51:44;;;;;;;0.50;0.50;;;7.60;99.90;;;;;;5097738;28;20101;-74
2022/06/02 02:54:23;;;;;;;0.50;0.50;;;7.60;99.90;;;;;;5098076;28;20043;-71
2022/06/02 02:57:12;;;;;;;0.47;0.47;;;7.60;99.90;;;;;;5097697;28;20479;-73
2022/06/02 02:59:53;;;;;;;0.70;0.70;;;7.60;99.90;;;;;;5097684;28;20048;-72
2022/06/02 03:03:03;;;;;;;0.50;0.50;;;7.50;99.90;;;;;;5097981;28;20043;-74
2022/06/02 03:05:38;;;;;;;0.50;0.50;;;7.50;99.90;;;;;;5097570;28;20052;-75
2022/06/02 03:08:45;;;;;;;1.02;1.02;;;7.40;99.90;;;;;;5097465;28;20079;-74
2022/06/02 03:11:20;;;;;;;0.68;0.68;;;7.30;99.90;;;;;;5076412;28;20048;-72
2022/06/02 03:14:09;;;;;;;0.50;0.50;;;7.30;99.90;;;;;;5097481;28;20052;-73
2022/06/02 03:16:38;;;;;;;0.50;0.50;;;7.30;99.90;;;;;;5097430;28;20040;-73
2022/06/02 03:19:22;;;;;;;0.50;0.50;;;7.20;99.90;;;;;;5097303;28;20051;-74
2022/06/02 03:22:12;;;;;;;0.50;0.50;;;7.20;99.90;;;;;;5097570;28;20040;-76
2022/06/02 03:24:43;;;;;;;0.50;0.50;;;7.70;99.90;;;;;;5097206;28;20369;-74
2022/06/02 03:27:56;;;;;;;0.45;0.45;;;7.30;99.90;;;;;;5097664;28;20040;-72
2022/06/02 03:30:24;;;;;;;0.50;0.50;;;7.30;99.90;;;;;;5091735;28;20407;-73
2022/06/02 03:32:56;;;;;;;0.50;0.50;;;7.30;99.90;;;;;;5096759;28;20476;-75
2022/06/02 03:35:40;;;;;;;0.50;0.50;;;7.40;99.90;;;;;;5096630;28;20094;-72
2022/06/02 03:38:30;;;;;;;0.47;0.47;;;7.30;99.90;;;;;;5096972;28;20047;-73
2022/06/02 03:41:22;;;;;;;0.50;0.50;;;7.40;99.90;;;;;;5096855;28;20043;-74
2022/06/02 03:43:56;;;;;;;0.50;0.50;;;7.30;99.90;;;;;;5097278;28;20047;-72
2022/06/02 03:46:47;;;;;;;0.50;0.50;;;7.30;99.90;;;;;;5097081;28;20094;-71
2022/06/02 03:49:37;;;;;;;0.50;0.50;;;7.30;99.90;;;;;;5096934;28;20434;-71
2022/06/02 03:52:42;;;;;;;0.50;0.50;;;7.40;99.90;;;;;;5096563;28;20052;-71
2022/06/02 03:55:35;;;;;;;0.50;0.50;;;7.30;99.90;;;;;;5095053;28;20484;-70
2022/06/02 03:58:25;;;;;;;0.60;0.60;;;7.30;99.90;;;;;;5096615;28;20040;-72
2022/06/02 04:00:59;;;;;;;0.70;0.60;;;7.40;99.90;;;;;;5097076;28;20051;-71
2022/06/02 04:03:49;;;;;;;0.50;0.50;;;7.40;99.90;;;;;;5096488;28;20044;-71
2022/06/02 04:06:29;;;;;;;0.50;0.50;;;7.40;99.90;;;;;;5096529;28;20067;-71
2022/06/02 04:09:20;;;;;;;0.50;0.50;;;7.40;99.90;;;;;;5096878;28;20415;-71
2022/06/02 04:14:59;;;;;;;0.50;0.50;;;7.40;99.90;;;;;;5096224;28;20135;-70
2022/06/02 04:17:30;;;;;;;0.50;0.50;;;7.40;99.90;;;;;;5096223;28;20087;-74
2022/06/02 04:23:04;;;;;;;0.50;0.50;;;7.50;99.90;;;;;;5096114;28;20067;-73
2022/06/02 04:25:36;;;;;;;0.50;0.50;;;7.50;99.90;;;;;;5096066;28;20059;-73
2022/06/02 04:28:30;;;;;;;0.50;0.50;;;7.50;99.90;;;;;;5095935;28;20048;-73
2022/06/02 04:31:34;;;;;;;0.50;0.50;;;7.60;99.90;;;;;;5096137;28;20040;-70
2022/06/02 04:34:41;;;;;;;0.50;0.50;;;7.60;99.90;;;;;;5095860;28;20093;-74
2022/06/02 04:37:22;;;;;;;0.93;0.93;;;7.60;99.90;;;;;;5095704;28;20072;-72
2022/06/02 04:39:59;;;;;;;0.45;0.45;;;7.70;99.90;;;;;;5095843;28;20373;-71
2022/06/02 04:42:35;;;;;;;0.50;0.50;;;7.70;99.90;;;;;;5095746;28;20083;-72
2022/06/02 04:45:19;;;;;;;0.50;0.50;;;7.90;99.90;;;;;;5095725;28;20052;-74
2022/06/02 04:48:07;;;;;;;0.68;0.68;;;8.00;99.90;;;;;;5095643;28;20052;-70
2022/06/02 04:50:41;;;;;;;0.50;0.50;;;7.90;99.90;;;;;;5095424;28;20052;-73
2022/06/02 04:53:25;;;;;;;0.50;0.50;;;8.00;99.90;;;;;;5095909;28;20102;-72
2022/06/02 04:56:08;;;;;;;0.50;0.50;;;8.00;99.90;;;;;;5095733;28;20457;-71
2022/06/02 04:58:46;;;;;;;0.50;0.50;;;8.10;99.90;;;;;;5095492;28;20135;-69
2022/06/02 05:01:33;;;;;;;0.40;0.40;;;8.10;99.90;;;;;;5095332;28;20050;-73
2022/06/02 05:04:17;;;;;;;0.50;0.50;;;8.20;99.90;;;;;;5095612;28;20047;-71
2022/06/02 05:07:00;;;;;;;0.40;0.40;;;8.20;99.90;;;;;;5094786;28;20178;-71
2022/06/02 05:09:40;;;;;;;0.50;0.50;;;8.30;99.90;;;;;;5095436;28;20172;-71
2022/06/02 05:12:12;;;;;;;0.50;0.50;;;8.40;99.90;;;;;;5094820;28;20496;-72
2022/06/02 05:14:55;;;;;;;0.40;0.40;;;8.50;99.90;;;;;;5095015;28;20048;-72
2022/06/02 05:17:26;;;;;;;0.90;0.90;;;8.60;99.90;;;;;;5095138;28;20503;-74
2022/06/02 05:20:30;;;;;;;0.50;0.50;;;8.70;99.90;;;;;;5095402;28;20485;-73
2022/06/02 05:23:20;;;;;;;0.40;0.40;;;8.90;99.90;;;;;;5094911;28;20059;-73
2022/06/02 05:26:07;;;;;;;0.50;0.50;;;9.30;99.90;;;;;;5094727;28;20058;-72
2022/06/02 05:29:03;;;;;;;0.73;0.73;;;9.70;99.90;;;;;;5095197;28;20133;-73
2022/06/02 05:32:03;;;;;;;0.40;0.40;;;10.10;99.90;;;;;;5094889;28;20495;-72
2022/06/02 05:34:38;;;;;;;0.73;0.73;;;10.60;99.90;;;;;;5094313;28;20040;-73
2022/06/02 05:37:09;;;;;;;0.40;0.40;;;11.00;99.90;;;;;;5094669;28;20177;-74
2022/06/02 05:39:46;;;;;;;0.40;0.40;;;11.50;99.90;;;;;;5094637;28;20055;-73
2022/06/02 05:42:36;;;;;;;0.50;0.50;;;11.90;99.90;;;;;;5094651;28;20044;-71
2022/06/02 05:45:22;;;;;;;0.40;0.40;;;12.30;99.90;;;;;;5094944;28;20048;-73
2022/06/02 05:48:29;;;;;;;0.40;0.40;;;12.60;99.90;;;;;;5094782;28;20040;-74
2022/06/02 05:50:57;;;;;;;0.40;0.40;;;13.10;99.90;;;;;;5094368;28;20420;-72
2022/06/02 05:53:53;;;;;;;0.40;0.40;;;13.40;99.90;;;;;;5093071;28;20071;-74
2022/06/02 05:56:44;;;;;;;1.02;0.98;;;13.70;99.90;;;;;;5094062;28;20084;-71
2022/06/02 05:59:31;;;;;;;0.40;0.40;;;14.00;99.90;;;;;;5094356;28;20048;-71
2022/06/02 06:02:26;;;;;;;0.40;0.40;;;14.30;99.90;;;;;;5094572;28;20074;-73
2022/06/02 06:05:07;;;;;;;0.40;0.40;;;14.40;99.90;;;;;;5094405;28;20228;-73
2022/06/02 06:08:16;;;;;;;0.40;0.40;;;14.60;99.90;;;;;;5094280;28;20044;-74
2022/06/02 06:11:00;;;;;;;0.40;0.40;;;14.60;99.90;;;;;;5064757;28;20400;-71
2022/06/02 06:14:04;;;;;;;0.50;0.50;;;14.70;99.90;;;;;;5094270;28;20134;-71
2022/06/02 06:16:32;;;;;;;0.50;0.50;;;14.90;99.90;;;;;;5085616;28;20135;-73
2022/06/02 06:19:06;;;;;;;0.40;0.40;;;14.90;99.90;;;;;;5093137;28;20054;-71
2022/06/02 06:21:54;;;;;;;0.60;0.60;;;15.00;99.90;;;;;;5093639;28;20542;-74
2022/06/02 06:24:50;;;;;;;0.70;0.70;;;15.10;99.90;;;;;;5093618;28;20488;-71
2022/06/02 06:27:30;;;;;;;0.30;0.30;;;15.10;99.90;;;;;;5093867;28;20063;-69
2022/06/02 06:30:10;;;;;;;0.40;0.40;;;15.10;99.90;;;;;;5093954;28;20435;-70
2022/06/02 06:33:14;;;;;;;0.30;0.30;;;15.20;99.90;;;;;;5093904;28;20083;-71
2022/06/02 06:35:49;;;;;;;0.30;0.30;;;15.30;99.90;;;;;;5093256;28;20410;-70
2022/06/02 06:38:24;;;;;;;0.30;0.30;;;15.30;99.90;;;;;;5093886;28;20074;-70
2022/06/02 06:41:11;;;;;;;0.45;0.45;;;15.30;99.90;;;;;;5093946;28;20438;-72
2022/06/02 06:43:55;;;;;;;0.40;0.40;;;15.30;99.90;;;;;;5093777;28;20048;-70
2022/06/02 06:46:54;;;;;;;0.38;0.38;;;15.20;99.90;;;;;;5093845;28;20097;-73
2022/06/02 06:49:55;;;;;;;0.60;0.60;;;15.10;99.90;;;;;;5093770;28;20089;-71
2022/06/02 06:52:45;;;;;;;0.40;0.40;;;15.20;99.90;;;;;;5094038;28;20048;-73
2022/06/02 06:55:36;;;;;;;0.30;0.30;;;15.20;99.90;;;;;;5094033;28;20484;-74
2022/06/02 06:58:14;;;;;;;0.50;0.50;;;15.30;99.90;;;;;;5093559;28;20048;-74
2022/06/02 07:00:49;;;;;;;2.78;0.63;;;15.40;99.90;;;;;;5093926;28;20086;-72
2022/06/02 07:03:35;;;;;;;0.65;0.65;;;15.40;99.90;;;;;;5094320;28;20044;-74
2022/06/02 07:06:40;;;;;;;0.30;0.30;;;15.50;99.90;;;;;;5093604;28;20040;-74
2022/06/02 07:09:33;;;;;;;0.30;0.30;;;15.60;99.90;;;;;;5071468;28;20131;-73
2022/06/02 07:15:19;;;;;;;0.40;0.40;;;15.60;99.90;;;;;;5093790;28;20044;-73
2022/06/02 07:17:44;;;;;;;0.30;0.30;;;15.60;99.90;;;;;;5093891;28;20051;-73
2022/06/02 07:20:17;;;;;;;0.40;0.40;;;15.50;99.90;;;;;;5093368;28;20050;-73
2022/06/02 07:23:05;;;;;;;0.35;0.35;;;15.50;99.90;;;;;;5093459;28;20043;-74
2022/06/02 07:25:45;;;;;;;0.50;0.50;;;15.60;99.90;;;;;;5093372;28;20040;-70
2022/06/02 07:28:22;;;;;;;0.30;0.30;;;15.70;99.90;;;;;;5093692;28;20044;-71
2022/06/02 07:31:03;;;;;;;;;;;15.70;99.90;;;;;;5096373;28;20127;-70
2022/06/02 07:33:42;;;;;;;0.30;0.30;;;15.60;99.90;;;;;;5096953;28;19920;-73
2022/06/02 07:36:18;;;;;;;0.30;0.30;;;15.70;99.90;;;;;;5097077;28;20081;-73
2022/06/02 07:39:04;;;;;;;0.30;0.30;;;16.00;99.90;;;;;;5096771;28;20043;-73
2022/06/02 07:42:04;;;;;;;0.30;0.30;;;16.10;99.90;;;;;;5097069;28;20080;-72
2022/06/02 07:45:08;;;;;;;0.30;0.30;;;16.10;99.90;;;;;;5097299;28;20083;-73
2022/06/02 07:47:41;;;;;;;0.30;0.30;;;16.00;99.90;;;;;;5096826;28;20131;-71
2022/06/02 07:50:27;;;;;;;0.30;0.30;;;16.00;99.90;;;;;;5096770;28;20131;-72
2022/06/02 07:53:08;;;;;;;0.30;0.30;;;16.10;99.90;;;;;;5097233;28;20040;-74
2022/06/02 07:55:58;;;;;;;0.45;0.30;;;16.40;99.90;;;;;;5096975;28;20122;-72
2022/06/02 07:58:41;;;;;;;0.30;0.30;;;16.40;99.90;;;;;;5095356;28;20055;-72
2022/06/02 08:01:33;;;;;;;0.30;0.30;;;16.20;99.90;;;;;;5096985;28;20054;-72
2022/06/02 08:04:21;;;;;;;0.30;0.30;;;16.10;99.90;;;;;;5096525;28;20096;-72
2022/06/02 08:06:59;;;;;;;0.95;0.95;;;16.30;99.90;;;;;;5096139;28;20044;-75
2022/06/02 08:09:43;;;;;;;0.82;0.82;;;16.40;99.90;;;;;;5096363;28;20044;-71
2022/06/02 08:12:35;;;;;;;0.30;0.30;;;16.70;99.90;;;;;;5096073;28;20055;-73
2022/06/02 08:15:28;;;;;;;0.30;0.30;;;16.80;99.90;;;;;;5096429;28;20037;-74
2022/06/02 08:18:01;;;;;;;0.40;0.40;;;16.80;99.90;;;;;;5096199;28;20087;-70
2022/06/02 08:20:45;;;;;;;0.30;0.30;;;16.70;99.90;;;;;;5096211;28;20044;-70
2022/06/02 08:23:25;;;;;;;0.30;0.30;;;16.60;99.90;;;;;;5096051;28;20072;-73
2022/06/02 08:25:57;;;;;;;0.30;0.30;;;16.80;99.90;;;;;;5095927;28;20177;-72
2022/06/02 08:28:47;;;;;;;0.30;0.30;;;16.80;99.90;;;;;;5095982;28;20048;-72
2022/06/02 08:31:36;;;;;;;0.30;0.30;;;16.80;99.90;;;;;;5095968;28;20036;-71
2022/06/02 08:34:22;;;;;;;0.30;0.30;;;16.60;99.90;;;;;;5095928;28;20054;-73
2022/06/02 08:36:47;;;;;;;0.73;0.63;;;16.60;99.90;;;;;;5095852;28;20044;-70
2022/06/02 08:39:39;;;;;;;0.37;0.37;;;16.60;99.90;;;;;;5095981;28;20089;-71
2022/06/02 08:42:23;;;;;;;0.40;0.40;;;16.60;99.90;;;;;;5095091;28;20050;-75
2022/06/02 08:45:38;;;;;;;0.30;0.30;;;16.50;99.90;;;;;;5095976;28;20055;-74
2022/06/02 08:48:06;;;;;;;0.30;0.30;;;16.80;99.90;;;;;;5033062;28;20061;-71
2022/06/02 08:51:02;;;;;;;0.30;0.30;;;17.10;99.90;;;;;;5033296;28;20050;-72
2022/06/02 08:53:57;;;;;;;0.30;0.30;;;17.20;99.90;;;;;;5081053;28;20052;-74
2022/06/02 08:56:44;;;;;;;0.40;0.40;;;17.30;99.90;;;;;;5095745;28;20052;-73
2022/06/02 08:59:42;;;;;;;0.30;0.30;;;17.00;99.90;;;;;;5095401;28;20071;-73
2022/06/02 09:02:31;;;;;;;0.30;0.30;;;16.80;99.90;;;;;;5095348;28;20044;-75
2022/06/02 09:05:15;;;;;;;0.30;0.30;;;16.90;99.90;;;;;;5094428;28;20109;-73
2022/06/02 09:08:07;;;;;;;0.20;0.20;;;17.00;99.90;;;;;;5095167;28;20074;-72
2022/06/02 09:10:52;;;;;;;0.50;0.50;;;17.50;99.90;;;;;;5094809;28;20522;-73
2022/06/02 09:14:00;;;;;;;0.30;0.30;;;17.60;99.90;;;;;;5095188;28;20044;-74
2022/06/02 09:16:55;;;;;;;0.30;0.30;;;17.60;99.90;;;;;;5086548;28;20062;-73
2022/06/02 09:19:34;;;;;;;0.30;0.30;;;17.70;99.90;;;;;;5089386;28;20139;-73
2022/06/02 09:22:03;;;;;;;0.30;0.30;;;17.60;99.90;;;;;;5095017;28;20076;-72
2022/06/02 09:24:33;;;;;;;0.40;0.40;;;17.30;99.90;;;;;;5094763;28;20094;-71
2022/06/02 09:27:23;;;;;;;0.30;0.30;;;17.20;99.90;;;;;;5095119;28;20131;-74
2022/06/02 09:29:57;;;;;;;0.30;0.30;;;17.20;99.90;;;;;;5094684;28;20055;-75
2022/06/02 09:32:51;;;;;;;0.30;0.30;;;17.40;99.90;;;;;;5094913;28;20048;-73
2022/06/02 09:35:28;;;;;;;0.30;0.30;;;17.60;99.90;;;;;;5095188;28;20430;-72
2022/06/02 09:38:32;;;;;;;0.40;0.40;;;17.80;99.90;;;;;;5094704;28;20091;-73
2022/06/02 09:41:13;;;;;;;0.30;0.30;;;18.10;99.90;;;;;;5094520;28;20044;-70
2022/06/02 09:44:07;;;;;;;0.40;0.40;;;18.30;99.90;;;;;;5094133;28;20395;-71
2022/06/02 09:47:08;;;;;;;0.30;0.30;;;18.50;99.90;;;;;;5094729;28;20087;-71
2022/06/02 09:49:40;;;;;;;0.30;0.30;;;18.60;99.90;;;;;;5094825;28;20059;-74
2022/06/02 09:52:49;;;;;;;0.30;0.30;;;18.70;99.90;;;;;;5094632;28;20411;-75
2022/06/02 09:55:42;;;;;;;0.30;0.30;;;18.80;99.90;;;;;;5094412;28;20040;-72
2022/06/02 09:58:35;;;;;;;0.30;0.30;;;18.70;99.90;;;;;;5094286;28;20090;-71
2022/06/02 10:01:15;;;;;;;0.30;0.30;;;18.90;99.90;;;;;;5094435;28;20048;-74
2022/06/02 10:04:08;;;;;;;0.30;0.30;;;18.80;99.90;;;;;;5092995;28;20044;-71
2022/06/02 10:07:08;;;;;;;0.30;0.30;;;18.60;99.90;;;;;;5093873;28;20388;-69
2022/06/02 10:09:42;;;;;;;0.30;0.30;;;18.50;99.90;;;;;;5094335;28;20096;-71
2022/06/02 10:15:34;;;;;;;0.30;0.30;;;18.70;99.90;;;;;;5094379;28;20055;-71
2022/06/02 10:18:43;;;;;;;0.32;0.32;;;18.80;99.70;;;;;;5094200;28;20127;-73
2022/06/02 10:21:30;;;;;;;0.40;0.40;;;19.10;99.90;;;;;;5094480;28;20062;-71
2022/06/02 10:24:36;;;;;;;0.35;0.35;;;19.40;98.80;;;;;;5094005;28;20055;-71
2022/06/02 10:27:25;;;;;;;0.30;0.30;;;19.70;99.00;;;;;;5093846;28;20101;-73
2022/06/02 10:30:12;;;;;;;1.23;0.50;;;19.70;97.30;;;;;;5093858;28;20051;-72
2022/06/02 10:33:28;;;;;;;0.30;0.30;;;19.70;99.10;;;;;;5093532;28;20042;-71
2022/06/02 10:36:16;;;;;;;0.25;0.25;;;19.30;98.90;;;;;;5031176;28;20051;-70
2022/06/02 10:39:15;;;;;;;0.30;0.30;;;19.20;98.40;;;;;;5031175;28;20053;-74
2022/06/02 10:42:06;;;;;;;0.40;0.40;;;19.10;99.90;;;;;;5083947;28;20084;-73
2022/06/02 10:44:48;;;;;;;0.30;0.30;;;19.10;99.90;;;;;;5093576;28;20037;-72
2022/06/02 10:47:35;;;;;;;0.30;0.30;;;18.90;99.90;;;;;;5093861;28;20154;-72
2022/06/02 10:50:24;;;;;;;0.30;0.30;;;18.70;99.90;;;;;;5093686;28;20122;-71
2022/06/02 10:53:05;;;;;;;0.30;0.30;;;18.50;99.90;;;;;;5093583;28;20506;-74
2022/06/02 10:56:13;;;;;;;0.20;0.20;;;18.80;99.90;;;;;;5093815;28;20040;-73
2022/06/02 10:59:07;;;;;;;0.30;0.30;;;19.10;99.70;;;;;;5093658;28;20122;-73
2022/06/02 11:01:56;;;;;;;0.30;0.30;;;19.10;99.90;;;;;;5093736;28;20089;-71
2022/06/02 11:04:44;;;;;;;0.30;0.30;;;19.00;99.90;;;;;;5093804;28;20040;-74
2022/06/02 11:07:47;;;;;;;0.30;0.30;;;18.80;99.90;;;;;;5096290;28;20106;-75
2022/06/02 11:10:22;;;;;;;0.30;0.30;;;18.50;99.90;;;;;;5097548;28;20044;-75
2022/06/02 11:13:09;;;;;;;0.30;0.30;;;18.40;99.90;;;;;;5097556;28;20044;-73
2022/06/02 11:15:44;;;;;;;0.20;0.20;;;18.30;99.90;;;;;;5097735;28;20411;-75
2022/06/02 11:18:29;;;;;;;0.30;0.30;;;18.60;99.90;;;;;;5097303;28;20050;-74
2022/06/02 11:21:32;;;;;;;0.40;0.40;;;18.90;99.90;;;;;;5097320;28;20476;-70
2022/06/02 11:24:03;;;;;;;0.30;0.30;;;19.30;98.90;;;;;;5097283;28;20051;-74
2022/06/02 11:26:52;;;;;;;0.20;0.20;;;19.40;99.90;;;;;;5097387;28;20490;-74
2022/06/02 11:29:21;;;;;;;0.30;0.30;;;19.80;99.50;;;;;;5088708;28;20066;-74
2022/06/02 11:32:16;;;;;;;0.30;0.30;;;20.10;96.30;;;;;;5097138;28;20044;-70
2022/06/02 11:35:22;;;;;;;0.22;0.22;;;20.00;96.00;;;;;;5095822;28;20135;-70
2022/06/02 11:38:10;;;;;;;0.30;0.30;;;19.70;98.60;;;;;;5097181;28;20044;-74
2022/06/02 11:40:56;;;;;;;0.30;0.30;;;19.30;98.30;;;;;;5097198;28;20052;-72
2022/06/02 11:43:37;;;;;;;0.75;0.52;;;19.00;97.80;;;;;;5096900;28;20055;-72
2022/06/02 11:46:27;;;;;;;0.30;0.30;;;18.80;98.30;;;;;;5097007;28;20055;-70
2022/06/02 11:49:17;;;;;;;0.30;0.30;;;18.90;97.40;;;;;;5096889;28;20044;-72
2022/06/02 11:51:49;;;;;;;0.30;0.30;;;19.20;97.90;;;;;;5096540;28;20473;-72
2022/06/02 11:54:45;;;;;;;0.22;0.22;;;19.60;99.90;;;;;;5096436;28;20508;-73
2022/06/02 11:57:52;;;;;;;0.40;0.40;;;20.00;97.00;;;;;;5096892;28;20074;-72
2022/06/02 12:00:44;;;;;;;0.30;0.30;;;20.30;97.40;;;;;;5075885;28;20088;-74
2022/06/02 12:03:47;;;;;;;0.40;0.40;;;20.70;96.90;;;;;;5096154;28;20039;-73
2022/06/02 12:06:36;;;;;;;0.30;0.30;;;20.70;95.80;;;;;;5096557;28;20059;-73
2022/06/02 12:09:32;;;;;;;0.30;0.30;;;20.80;96.20;;;;;;5096344;28;20123;-76
2022/06/02 12:12:13;;;;;;;0.30;0.30;;;21.00;95.60;;;;;;5096264;28;20059;-73
2022/06/02 12:15:13;;;;;;;0.30;0.30;;;21.20;95.50;;;;;;5096370;28;20051;-73
2022/06/02 12:17:44;;;;;;;0.30;0.30;;;21.10;94.50;;;;;;5086734;28;20116;-74
2022/06/02 12:20:41;;;;;;;0.20;0.20;;;20.80;93.40;;;;;;5096129;28;20052;-75
2022/06/02 12:23:25;;;;;;;0.25;0.25;;;20.20;94.10;;;;;;5096133;28;20114;-72
2022/06/02 12:26:15;;;;;;;0.30;0.30;;;19.80;95.70;;;;;;5096111;28;20044;-74
2022/06/02 12:28:44;;;;;;;0.30;0.30;;;19.50;95.00;;;;;;5096002;28;20051;-70
2022/06/02 12:31:36;;;;;;;0.30;0.30;;;19.30;95.60;;;;;;5095823;28;20464;-71
2022/06/02 12:34:50;;;;;;;0.30;0.30;;;19.20;95.70;;;;;;5095819;28;20101;-75
2022/06/02 12:37:36;;;;;;;0.30;0.30;;;19.10;97.20;;;;;;5041331;28;20422;-75
2022/06/02 12:40:06;;;;;;;0.20;0.20;;;18.90;97.80;;;;;;5095954;28;20094;-76
2022/06/02 12:42:56;;;;;;;0.30;0.30;;;19.00;98.80;;;;;;5095695;28;20044;-73
2022/06/02 12:45:50;;;;;;;0.20;0.20;;;19.40;99.80;;;;;;5096245;28;20395;-73
2022/06/02 12:49:12;;;;;;;0.30;0.30;;;20.00;98.10;;;;;;5093369;28;20091;-75
2022/06/02 12:51:57;;;;;;;0.30;0.30;;;20.40;95.20;;;;;;5082595;28;20052;-72
2022/06/02 12:54:48;;;;;;;0.30;0.30;;;20.60;96.00;;;;;;5095606;28;20036;-74
2022/06/02 12:57:23;;;;;;;0.20;0.20;;;20.80;95.40;;;;;;5095585;28;20100;-70
2022/06/02 12:59:48;;;;;;;0.40;0.40;;;21.10;95.20;;;;;;5095376;28;20055;-75
2022/06/02 13:02:54;;;;;;;0.57;0.53;;;21.30;93.40;;;;;;5095101;28;20044;-73
2022/06/02 13:05:41;;;;;;;0.20;0.20;;;21.20;93.60;;;;;;5095246;28;20484;-71
2022/06/02 13:08:28;;;;;;;0.20;0.20;;;20.90;94.60;;;;;;5095126;28;20044;-74
2022/06/02 13:11:01;;;;;;;0.22;0.22;;;20.50;93.70;;;;;;5095153;28;20097;-75
2022/06/02 13:14:05;;;;;;;0.30;0.30;;;20.10;92.20;;;;;;5095186;28;20055;-72
2022/06/02 13:17:13;;;;;;;0.30;0.30;;;20.10;94.20;;;;;;5095062;28;20444;-73
2022/06/02 13:19:46;;;;;;;0.30;0.30;;;20.30;93.60;;;;;;5095280;28;20051;-71
2022/06/02 13:22:49;;;;;;;0.30;0.30;;;20.60;93.70;;;;;;5095032;28;20569;-74
2022/06/02 13:25:47;;;;;;;0.35;0.35;;;20.70;93.00;;;;;;5094931;28;20488;-75
2022/06/02 13:28:36;;;;;;;0.30;0.30;;;20.30;94.00;;;;;;5049758;28;20144;-72
2022/06/02 13:31:23;;;;;;;0.22;0.22;;;20.10;94.30;;;;;;5094461;28;20044;-71
2022/06/02 13:34:25;;;;;;;0.30;0.30;;;19.90;94.10;;;;;;5095082;28;20040;-70
2022/06/02 13:36:59;;;;;;;0.20;0.20;;;20.20;95.60;;;;;;5094766;28;20047;-74
2022/06/02 13:39:43;;;;;;;0.40;0.40;;;20.40;92.90;;;;;;5094616;28;20096;-75
2022/06/02 13:42:20;;;;;;;0.20;0.20;;;20.90;93.60;;;;;;5094752;28;20043;-74
2022/06/02 13:44:57;;;;;;;0.20;0.20;;;21.10;93.40;;;;;;5094868;28;20551;-71
2022/06/02 13:48:00;;;;;;;0.22;0.22;;;21.30;93.50;;;;;;5094523;28;20502;-73
2022/06/02 13:50:40;;;;;;;0.30;0.30;;;21.30;91.80;;;;;;5094442;28;20051;-75
2022/06/02 13:53:28;;;;;;;0.20;0.20;;;21.10;92.30;;;;;;5094624;28;20093;-74
2022/06/02 13:59:20;;;;;;;0.20;0.20;;;20.60;93.30;;;;;;5094232;28;20480;-72
2022/06/02 14:01:55;;;;;;;0.20;0.20;;;20.40;92.00;;;;;;5094584;28;20044;-75
2022/06/02 14:04:32;;;;;;;0.30;0.30;;;20.50;91.30;;;;;;5094333;28;20050;-75
2022/06/02 14:07:16;;;;;;;0.30;0.30;;;20.70;91.20;;;;;;5094195;28;20040;-73
2022/06/02 14:09:48;;;;;;;0.35;0.35;;;20.50;91.70;;;;;;5093865;28;20090;-73
2022/06/02 14:12:32;;;;;;;0.30;0.30;;;20.10;90.70;;;;;;5093884;28;20055;-75
2022/06/02 14:15:01;;;;;;;0.30;0.30;;;20.10;91.30;;;;;;5094066;28;20135;-73
2022/06/02 14:17:56;;;;;;;0.20;0.20;;;20.00;92.10;;;;;;5093814;28;20044;-71
2022/06/02 14:20:22;;;;;;;0.30;0.30;;;19.90;91.20;;;;;;5094051;28;20044;-74
2022/06/02 14:23:12;;;;;;;0.30;0.30;;;19.80;91.70;;;;;;5093974;28;20494;-72
2022/06/02 14:25:50;;;;;;;0.20;0.20;;;19.70;93.20;;;;;;5093948;28;20138;-74
2022/06/02 14:28:53;;;;;;;0.20;0.20;;;19.70;93.30;;;;;;5093971;28;20089;-71
2022/06/02 14:32:04;;;;;;;0.25;0.25;;;19.90;93.00;;;;;;5093668;28;20052;-72
2022/06/02 14:34:54;;;;;;;0.30;0.30;;;20.10;93.00;;;;;;5093897;28;20048;-75
2022/06/02 14:37:30;;;;;;;0.38;0.35;;;20.20;93.90;;;;;;5094042;28;20040;-73
2022/06/02 14:40:31;;;;;;;0.30;0.30;;;20.30;93.10;;;;;;5093256;28;20040;-75
2022/06/02 14:43:19;;;;;;;0.47;0.45;;;20.60;96.30;;;;;;5031302;28;20081;-72
2022/06/02 14:46:00;;;;;;;0.20;0.20;;;21.00;93.10;;;;;;5090110;28;20511;-71
2022/06/02 14:48:52;;;;;;;0.30;0.30;;;21.00;92.60;;;;;;5093701;28;20052;-74